Time;durP1;ratioP1;P1;durP2;ratioP2;P2;SDS_P1;SDS_P2;PMS_P1;PMS_P2;Temp;Humidity;BMP_temperature;BMP_pressure;BME280_temperature;BME280_humidity;BME280_pressure;Samples;Min_cycle;Max_cycle;Signal;HPM_P1;HPM_P2
2020/12/12 00:02:16;;;;;;;96.10;61.23;;;;;;;4.27;80.81;98807.96;2882296;82;21121;-69
2020/12/12 00:06:23;;;;;;;119.47;71.05;;;;;;;4.29;80.82;98811.30;2882224;82;21177;-69
2020/12/12 00:10:26;;;;;;;101.85;60.48;;;;;;;4.32;80.68;98813.69;2883001;82;21153;-69
2020/12/12 00:14:29;;;;;;;108.50;64.10;;;;;;;4.30;80.73;98812.98;2882708;82;21571;-69
2020/12/12 00:18:34;;;;;;;111.15;63.33;;;;;;;4.37;80.84;98814.18;2867930;82;21153;-68
2020/12/12 00:22:37;;;;;;;103.15;61.68;;;;;;;4.42;80.68;98817.28;2785629;85;21135;-69
2020/12/12 00:26:42;;;;;;;108.12;67.10;;;;;;;4.42;80.43;98815.95;2814377;84;21138;-69
2020/12/12 00:30:44;;;;;;;98.58;66.10;;;;;;;4.42;80.55;98809.38;2785331;85;21760;-69
2020/12/12 00:34:48;;;;;;;114.37;70.80;;;;;;;4.42;80.39;98812.02;2865678;82;21192;-69
2020/12/12 00:38:50;;;;;;;107.32;68.80;;;;;;;4.40;80.28;98802.55;2785667;85;21179;-69
2020/12/12 00:42:53;;;;;;;93.95;65.65;;;;;;;4.36;80.28;98801.98;2815172;84;21137;-69
2020/12/12 00:46:57;;;;;;;107.50;69.72;;;;;;;4.35;80.27;98806.03;2785480;85;21128;-69
2020/12/12 00:51:00;;;;;;;106.30;65.40;;;;;;;4.35;80.51;98810.84;2814990;84;21532;-69
2020/12/12 00:55:03;;;;;;;116.53;72.20;;;;;;;4.38;80.21;98813.22;2785083;85;21163;-69
2020/12/12 00:59:06;;;;;;;106.70;67.17;;;;;;;4.37;80.30;98808.06;2814549;84;21150;-69
2020/12/12 01:03:10;;;;;;;103.45;69.92;;;;;;;4.33;80.08;98807.49;2784933;85;21646;-71
2020/12/12 01:07:13;;;;;;;112.92;71.47;;;;;;;4.24;80.16;98804.26;2865705;82;21141;-69
2020/12/12 01:11:19;;;;;;;119.60;68.10;;;;;;;4.17;80.22;98796.50;2785372;84;21152;-69
2020/12/12 01:15:23;;;;;;;115.70;74.72;;;;;;;4.08;80.36;98798.89;2816626;82;21654;-69
2020/12/12 01:19:26;;;;;;;101.60;66.22;;;;;;;4.01;80.37;98800.34;2832244;84;21196;-69
2020/12/12 01:23:28;;;;;;;107.80;67.97;;;;;;;3.89;80.58;98804.77;2869002;83;21605;-69
2020/12/12 01:27:31;;;;;;;103.20;68.97;;;;;;;3.86;80.74;98806.33;2829709;84;21567;-69
2020/12/12 01:31:34;;;;;;;108.42;66.62;;;;;;;3.84;80.77;98803.80;2881475;82;21145;-69
2020/12/12 01:35:37;;;;;;;110.03;71.12;;;;;;;3.83;80.80;98798.65;2880651;82;21153;-69
2020/12/12 01:39:40;;;;;;;100.97;64.77;;;;;;;3.83;80.84;98805.22;2880861;82;22299;-69
2020/12/12 01:43:51;;;;;;;117.20;72.00;;;;;;;3.75;80.54;98804.53;2880813;82;21149;-69
2020/12/12 01:47:57;;;;;;;110.20;68.75;;;;;;;3.61;80.63;98799.48;2880931;82;21149;-69
2020/12/12 01:52:04;;;;;;;117.25;71.90;;;;;;;3.48;80.77;98805.67;2880900;82;21623;-69
2020/12/12 01:56:07;;;;;;;120.60;72.30;;;;;;;3.37;81.05;98808.30;2880532;82;21616;-69
2020/12/12 02:00:10;;;;;;;105.55;65.85;;;;;;;3.29;81.28;98797.87;2880857;82;21131;-69
2020/12/12 02:04:18;;;;;;;107.07;69.25;;;;;;;3.29;81.49;98801.81;2880928;82;21181;-69
2020/12/12 02:08:21;;;;;;;102.30;63.75;;;;;;;3.34;81.43;98801.94;2881045;82;21161;-69
2020/12/12 02:12:24;;;;;;;112.92;67.92;;;;;;;3.31;81.37;98807.43;2880861;82;21176;-69
2020/12/12 02:16:27;;;;;;;121.45;66.12;;;;;;;3.28;81.75;98807.20;2881342;82;21153;-69
2020/12/12 02:20:31;;;;;;;93.30;63.13;;;;;;;3.24;81.83;98803.11;2881048;82;21177;-69
2020/12/12 02:24:35;;;;;;;94.00;60.58;;;;;;;3.12;81.94;98807.49;2887666;81;21567;-69
2020/12/12 02:28:48;;;;;;;101.35;61.60;;;;;;;3.09;82.24;98795.91;2817442;83;21158;-69
2020/12/12 02:32:49;;;;;;;94.32;57.43;;;;;;;3.04;82.26;98798.05;2816595;84;21523;-69
2020/12/12 02:36:52;;;;;;;102.40;58.33;;;;;;;2.97;82.37;98799.83;2816510;83;21182;-69
2020/12/12 02:40:55;;;;;;;88.22;51.60;;;;;;;2.89;82.46;98802.16;2851154;83;21145;-69
2020/12/12 02:45:00;;;;;;;77.72;48.35;;;;;;;2.83;82.61;98802.63;2831879;83;21216;-69
2020/12/12 02:49:03;;;;;;;78.00;50.55;;;;;;;2.75;82.80;98803.64;2831929;83;21531;-69
2020/12/12 02:53:07;;;;;;;86.87;48.70;;;;;;;2.69;82.97;98801.84;2832271;83;21598;-69
2020/12/12 02:57:10;;;;;;;76.10;47.10;;;;;;;2.52;83.20;98808.33;2831917;83;21093;-69
2020/12/12 03:01:13;;;;;;;75.83;44.48;;;;;;;2.33;83.70;98809.28;2831773;84;21164;-69
2020/12/12 03:05:17;;;;;;;85.00;48.75;;;;;;;2.25;84.33;98805.89;2831734;83;21176;-68
2020/12/12 03:09:20;;;;;;;81.40;48.20;;;;;;;2.25;84.67;98809.83;2831520;83;21129;-69
2020/12/12 03:13:23;;;;;;;76.62;44.93;;;;;;;2.25;85.02;98807.20;2831881;83;21619;-69
2020/12/12 03:17:26;;;;;;;78.28;49.42;;;;;;;2.31;85.14;98809.87;2832247;83;21136;-69
2020/12/12 03:21:29;;;;;;;67.75;43.83;;;;;;;2.30;85.11;98805.08;2832193;83;21164;-68
2020/12/12 03:25:32;;;;;;;69.17;41.53;;;;;;;2.25;85.23;98805.89;2832272;83;21607;-68
2020/12/12 03:29:38;;;;;;;65.65;39.85;;;;;;;2.25;85.44;98808.02;2832172;83;21591;-69
2020/12/12 03:33:41;;;;;;;82.57;44.77;;;;;;;2.24;85.44;98813.40;2832747;83;21157;-69
2020/12/12 03:37:44;;;;;;;64.50;43.75;;;;;;;2.29;85.69;98809.97;2832040;83;21198;-69
2020/12/12 03:41:49;;;;;;;64.07;38.02;;;;;;;2.28;85.45;98799.95;2830650;83;21165;-69
2020/12/12 03:45:52;;;;;;;68.57;40.25;;;;;;;2.26;85.62;98789.20;2832222;83;21168;-69
2020/12/12 03:49:55;;;;;;;64.05;38.85;;;;;;;2.25;85.58;98795.39;2832054;83;21117;-69
2020/12/12 03:53:58;;;;;;;66.57;39.13;;;;;;;2.18;85.65;98798.92;2832414;84;21144;-69
2020/12/12 03:58:01;;;;;;;67.40;43.58;;;;;;;2.10;85.81;98806.51;2831999;83;21169;-69
2020/12/12 04:02:04;;;;;;;64.87;40.33;;;;;;;2.09;86.17;98810.91;2832011;83;21192;-69
2020/12/12 04:06:07;;;;;;;66.22;41.65;;;;;;;2.11;86.19;98813.43;2831975;83;21639;-69
2020/12/12 04:10:10;;;;;;;58.58;40.15;;;;;;;2.09;86.18;98814.84;2832308;83;21536;-69
2020/12/12 04:14:13;;;;;;;71.12;42.75;;;;;;;2.04;86.31;98815.64;2832143;84;21173;-69
2020/12/12 04:18:16;;;;;;;60.50;37.98;;;;;;;2.10;86.64;98811.75;2824302;83;21121;-69
2020/12/12 04:22:19;;;;;;;66.45;38.92;;;;;;;2.18;86.60;98821.22;2817429;83;21197;-69
2020/12/12 04:26:24;;;;;;;64.75;42.43;;;;;;;2.23;86.37;98818.28;2817433;83;21173;-69
2020/12/12 04:30:27;;;;;;;62.30;39.13;;;;;;;2.24;86.39;98822.58;2817741;84;21125;-69
2020/12/12 04:34:29;;;;;;;61.30;42.17;;;;;;;2.34;86.49;98817.03;2817606;84;21133;-69
2020/12/12 04:38:35;;;;;;;71.40;41.10;;;;;;;2.36;86.23;98817.78;2817363;83;21741;-69
2020/12/12 04:42:42;;;;;;;;;;;;;;;2.43;86.24;98809.83;2819701;83;21181;-68
2020/12/12 04:46:44;;;;;;;64.40;39.25;;;;;;;2.51;86.03;98811.05;2817352;83;20160;-68
2020/12/12 04:50:48;;;;;;;59.67;37.28;;;;;;;2.57;86.10;98817.19;2817524;84;21149;-68
2020/12/12 04:54:52;;;;;;;64.92;41.08;;;;;;;2.62;85.91;98811.58;2817328;83;21145;-69
2020/12/12 04:58:55;;;;;;;67.32;38.10;;;;;;;2.71;85.72;98809.62;2817378;84;21201;-69
2020/12/12 05:02:59;;;;;;;69.27;41.02;;;;;;;2.80;85.66;98810.73;2817524;83;21181;-69
2020/12/12 05:07:02;;;;;;;62.83;41.10;;;;;;;2.88;85.53;98802.30;2817324;84;21319;-69
2020/12/12 05:11:05;;;;;;;66.95;41.40;;;;;;;2.88;85.00;98808.86;2817476;83;21165;-69
2020/12/12 05:15:08;;;;;;;68.95;39.55;;;;;;;2.85;85.05;98812.54;2817390;83;21579;-69
2020/12/12 05:19:13;;;;;;;72.12;41.15;;;;;;;2.80;84.99;98806.80;2827539;83;21172;-69
2020/12/12 05:23:19;;;;;;;57.47;36.27;;;;;;;2.76;85.19;98809.28;2833518;83;21164;-69
2020/12/12 05:27:23;;;;;;;;;;;;;;;2.74;85.29;98815.95;2835514;84;21626;-70
2020/12/12 05:31:27;;;;;;;70.57;39.00;;;;;;;2.73;85.22;98812.11;2833254;84;20171;-69
2020/12/12 05:35:31;;;;;;;65.62;38.60;;;;;;;2.70;85.30;98811.87;2852382;82;21140;-70
2020/12/12 05:39:35;;;;;;;59.40;37.33;;;;;;;2.71;85.43;98814.87;2857653;83;21636;-69
2020/12/12 05:43:38;;;;;;;71.07;41.30;;;;;;;2.77;85.35;98817.53;2857441;83;21135;-69
2020/12/12 05:47:41;;;;;;;63.48;39.23;;;;;;;2.82;85.53;98821.96;2857668;83;21635;-69
2020/12/12 05:51:45;;;;;;;67.80;39.23;;;;;;;2.90;85.33;98826.66;2857466;83;21171;-69
2020/12/12 05:55:48;;;;;;;70.28;42.95;;;;;;;2.92;85.38;98821.63;2835041;83;21136;-69
2020/12/12 05:59:52;;;;;;;63.80;40.20;;;;;;;2.99;85.23;98822.02;2857572;83;21144;-69
2020/12/12 06:04:09;;;;;;;66.82;38.15;;;;;;;3.08;85.11;98821.81;2857537;83;21184;-69
2020/12/12 06:08:17;;;;;;;68.02;36.88;;;;;;;3.07;84.88;98820.14;2857408;83;21528;-69
2020/12/12 06:12:22;;;;;;;63.52;39.40;;;;;;;3.06;84.87;98825.04;2856681;82;21586;-69
2020/12/12 06:16:31;;;;;;;55.75;34.70;;;;;;;3.08;84.99;98819.19;2857560;83;21159;-69
2020/12/12 06:20:38;;;;;;;67.00;41.40;;;;;;;3.05;84.82;98816.33;2831878;82;21129;-69
2020/12/12 06:24:44;;;;;;;68.42;38.55;;;;;;;3.08;84.95;98808.68;2819513;82;21149;-69
2020/12/12 06:28:47;;;;;;;68.15;39.05;;;;;;;3.10;84.85;98810.25;2813407;84;21620;-69
2020/12/12 06:33:04;;;;;;;69.62;40.23;;;;;;;3.10;84.91;98811.56;2813733;84;21611;-69
2020/12/12 06:37:07;;;;;;;;;;;;;;;3.11;84.96;98820.27;2816210;84;21177;-69
2020/12/12 06:41:10;;;;;;;69.40;41.48;;;;;;;3.14;84.99;98816.09;2813498;84;20193;-69
2020/12/12 06:45:22;;;;;;;58.65;36.83;;;;;;;3.15;84.88;98820.43;2813581;83;21173;-70
2020/12/12 06:49:24;;;;;;;76.17;41.02;;;;;;;3.16;85.01;98820.79;2766755;85;22375;-69
2020/12/12 06:53:31;;;;;;;78.30;45.52;;;;;;;3.14;85.01;98829.23;2766999;85;21177;-69
2020/12/12 06:57:37;;;;;;;71.72;40.10;;;;;;;3.16;85.19;98823.42;2771503;84;21188;-69
2020/12/12 07:01:39;;;;;;;73.30;42.50;;;;;;;3.21;85.36;98823.05;2825086;84;21169;-70
2020/12/12 07:05:42;;;;;;;234.45;143.30;;;;;;;3.28;85.14;98831.68;2810943;84;21599;-69
2020/12/12 07:09:45;;;;;;;315.52;193.70;;;;;;;3.33;85.33;98830.02;2824626;84;21769;-69
2020/12/12 07:13:49;;;;;;;174.50;116.77;;;;;;;3.42;85.23;98832.44;2811001;84;21552;-69
2020/12/12 07:17:52;;;;;;;151.63;101.05;;;;;;;3.46;84.90;98839.62;2820684;84;21396;-69
2020/12/12 07:21:56;;;;;;;95.65;56.73;;;;;;;3.54;84.98;98838.55;2813512;84;21177;-69
2020/12/12 07:25:58;;;;;;;90.60;49.15;;;;;;;3.57;84.81;98844.43;2861697;83;21160;-69
2020/12/12 07:30:03;;;;;;;112.20;75.70;;;;;;;3.67;84.67;98847.66;2826984;84;21180;-69
2020/12/12 07:34:06;;;;;;;102.78;67.35;;;;;;;3.71;84.93;98849.95;2813570;84;21130;-69
2020/12/12 07:38:09;;;;;;;126.02;82.20;;;;;;;3.78;84.74;98853.41;2827605;84;21177;-69
2020/12/12 07:42:12;;;;;;;89.28;57.27;;;;;;;3.88;84.63;98860.13;2813568;84;21627;-69
2020/12/12 07:46:15;;;;;;;93.42;49.18;;;;;;;3.96;84.44;98852.49;2827565;84;21172;-70
2020/12/12 07:50:19;;;;;;;88.65;47.98;;;;;;;3.93;83.57;98861.91;2813579;84;21172;-69
2020/12/12 07:54:24;;;;;;;85.17;45.45;;;;;;;3.82;83.87;98864.05;2827255;84;21149;-69
2020/12/12 07:58:30;;;;;;;88.65;48.70;;;;;;;3.81;83.93;98865.01;2813668;84;21184;-70
2020/12/12 08:02:32;;;;;;;77.82;48.55;;;;;;;3.77;83.83;98869.69;2827062;84;22156;-69
2020/12/12 08:06:35;;;;;;;80.35;50.65;;;;;;;3.75;83.94;98868.13;2813781;84;21133;-70
2020/12/12 08:10:39;;;;;;;91.37;53.05;;;;;;;3.75;83.87;98872.06;2827839;84;21176;-70
2020/12/12 08:19:20;;;;;;;102.78;53.25;;;;;;;3.71;83.94;98867.50;2832734;84;21153;-69
2020/12/12 08:23:24;;;;;;;92.95;52.78;;;;;;;3.64;84.02;98871.10;2781638;85;21173;-69
2020/12/12 08:27:28;;;;;;;85.42;54.13;;;;;;;3.66;84.28;98871.82;2830865;84;21129;-70
2020/12/12 08:31:40;;;;;;;88.45;53.02;;;;;;;3.65;84.11;98867.98;2831387;83;21141;-69
2020/12/12 08:35:43;;;;;;;84.60;50.33;;;;;;;3.62;84.21;98878.73;2843576;83;21147;-70
2020/12/12 08:39:46;;;;;;;94.60;51.60;;;;;;;3.59;84.16;98877.66;2868813;83;21165;-70
2020/12/12 08:43:49;;;;;;;79.42;48.15;;;;;;;3.54;84.20;98880.16;2820498;84;21172;-69
2020/12/12 08:48:05;;;;;;;81.78;49.13;;;;;;;3.52;84.35;98878.09;2866728;83;21185;-69
2020/12/12 08:52:08;;;;;;;78.97;50.85;;;;;;;3.54;84.52;98886.73;2820323;84;21137;-69
2020/12/12 08:56:22;;;;;;;84.03;50.48;;;;;;;3.59;84.35;98881.11;2846573;83;21150;-69
2020/12/12 09:00:26;;;;;;;79.32;47.10;;;;;;;3.55;84.18;98897.61;2820282;84;21177;-69
2020/12/12 09:04:30;;;;;;;81.87;48.98;;;;;;;3.54;84.20;98894.63;2866783;83;21193;-68
2020/12/12 09:08:33;;;;;;;83.25;51.77;;;;;;;3.55;84.33;98898.93;2820480;84;21165;-69
2020/12/12 09:12:50;;;;;;;90.67;52.35;;;;;;;3.57;84.49;98899.66;2866699;83;21137;-69
2020/12/12 09:16:59;;;;;;;88.40;52.33;;;;;;;3.63;84.61;98875.97;2819804;84;21629;-69
2020/12/12 09:21:02;;;;;;;84.47;52.73;;;;;;;3.67;84.32;98883.16;2866230;83;21184;-69
2020/12/12 09:25:08;;;;;;;89.10;47.08;;;;;;;3.66;84.44;98890.23;2820803;84;21145;-69
2020/12/12 09:29:12;;;;;;;96.82;55.20;;;;;;;3.65;84.34;98890.33;2866149;83;21153;-69
2020/12/12 09:33:15;;;;;;;99.72;48.80;;;;;;;3.57;84.33;98891.77;2813281;84;21633;-69
2020/12/12 09:37:18;;;;;;;80.80;46.55;;;;;;;3.48;84.31;98896.37;2842224;83;22327;-69
2020/12/12 09:41:21;;;;;;;90.53;50.90;;;;;;;3.41;84.48;98899.11;2819898;83;21186;-69
2020/12/12 09:45:24;;;;;;;87.33;50.38;;;;;;;3.37;84.62;98896.36;2820106;83;21680;-69
2020/12/12 09:49:27;;;;;;;93.60;47.10;;;;;;;3.44;84.85;98892.31;2811860;83;21153;-71
2020/12/12 09:53:30;;;;;;;86.72;50.80;;;;;;;3.48;84.59;98892.92;2836902;83;21184;-67
2020/12/12 09:57:34;;;;;;;89.22;50.23;;;;;;;3.49;84.39;98899.37;2807547;84;21642;-68
2020/12/12 10:01:39;;;;;;;86.87;49.53;;;;;;;3.50;84.29;98894.96;2845441;83;21141;-69
2020/12/12 10:05:44;;;;;;;90.28;55.30;;;;;;;3.53;84.51;98896.05;2819932;84;21209;-69
2020/12/12 10:09:47;;;;;;;85.25;53.23;;;;;;;3.54;84.32;98899.03;2820212;84;21160;-69
2020/12/12 10:13:49;;;;;;;87.25;49.65;;;;;;;3.52;84.25;98895.19;2820124;84;21189;-69
2020/12/12 10:17:53;;;;;;;85.67;51.23;;;;;;;3.55;84.32;98898.93;2798558;85;21142;-68
2020/12/12 10:21:56;;;;;;;96.67;56.75;;;;;;;3.56;84.14;98894.49;2820268;84;21532;-69
2020/12/12 10:25:59;;;;;;;98.20;54.15;;;;;;;3.57;84.26;98890.91;2820232;83;21191;-68
2020/12/12 10:30:06;;;;;;;100.07;55.30;;;;;;;3.60;84.15;98899.05;2820032;84;21176;-69
2020/12/12 10:34:10;;;;;;;99.62;54.90;;;;;;;3.64;84.24;98907.92;2826283;83;21197;-69
2020/12/12 10:38:14;;;;;;;88.35;50.55;;;;;;;3.68;83.96;98899.30;2816567;84;21126;-68
2020/12/12 10:42:17;;;;;;;114.45;61.28;;;;;;;3.68;83.98;98902.78;2834431;83;21219;-67
2020/12/12 10:46:20;;;;;;;119.42;57.58;;;;;;;3.72;84.01;98912.58;2832854;83;21162;-65
2020/12/12 10:50:23;;;;;;;113.08;58.45;;;;;;;3.75;83.98;98901.84;2772814;85;21200;-70
2020/12/12 10:54:28;;;;;;;99.15;60.85;;;;;;;3.78;83.91;98903.39;2817601;84;21160;-69
2020/12/12 10:58:31;;;;;;;169.85;88.27;;;;;;;3.80;83.81;98903.64;2817847;84;21643;-68
2020/12/12 11:02:34;;;;;;;139.07;85.77;;;;;;;3.81;83.81;98905.32;2830635;83;21181;-68
2020/12/12 11:06:38;;;;;;;133.07;76.62;;;;;;;3.86;83.98;98899.22;2821431;83;21164;-68
2020/12/12 11:10:40;;;;;;;136.72;79.80;;;;;;;3.90;83.56;98905.56;2844496;83;21423;-68
2020/12/12 11:14:47;;;;;;;116.22;70.22;;;;;;;3.93;83.83;98900.06;2838965;82;22243;-65
2020/12/12 11:18:52;;;;;;;119.72;70.50;;;;;;;3.99;83.64;98899.61;2854834;83;21633;-66
2020/12/12 11:22:56;;;;;;;129.25;72.97;;;;;;;3.99;83.50;98903.56;2845795;83;22231;-67
2020/12/12 11:27:01;;;;;;;109.75;66.60;;;;;;;4.01;83.53;98893.75;2779523;84;21199;-68
2020/12/12 11:31:09;;;;;;;139.80;75.85;;;;;;;4.07;83.51;98904.28;2847642;83;21648;-68
2020/12/12 11:39:57;;;;;;;153.07;76.10;;;;;;;4.12;83.08;98894.23;3000771;77;23557;-67
2020/12/12 11:48:26;;;;;;;171.60;93.12;;;;;;;4.04;83.21;98907.98;2924456;80;21120;-65
2020/12/12 11:52:45;;;;;;;228.67;129.35;;;;;;;4.07;83.31;98899.84;2955349;80;21172;-66
2020/12/12 11:56:52;;;;;;;244.32;142.68;;;;;;;4.13;83.37;98899.86;2955154;80;21220;-67
2020/12/12 12:01:01;;;;;;;334.87;185.95;;;;;;;4.23;83.37;98901.30;2955319;80;21124;-67
2020/12/12 12:05:05;;;;;;;;;;;;;;;4.35;83.08;98903.45;2954544;79;21598;-67
2020/12/12 12:09:19;;;;;;;309.37;178.85;;;;;;;4.35;82.92;98901.67;2929697;80;20192;-67
2020/12/12 12:13:21;;;;;;;190.90;109.27;;;;;;;4.46;82.95;98906.55;2848772;82;21094;-66
2020/12/12 12:17:25;;;;;;;155.78;95.40;;;;;;;4.54;82.87;98910.76;2806258;84;21603;-67
2020/12/12 12:21:35;;;;;;;147.80;90.57;;;;;;;4.60;82.51;98906.77;2820132;84;21136;-67
2020/12/12 12:25:40;;;;;;;150.27;93.12;;;;;;;4.64;82.29;98914.32;2819843;84;21192;-67
2020/12/12 12:29:48;;;;;;;211.52;115.40;;;;;;;4.62;82.28;98910.98;2819559;84;21163;-67
2020/12/12 12:33:52;;;;;;;214.40;114.37;;;;;;;4.64;82.20;98916.95;2819933;84;21578;-67
2020/12/12 12:38:02;;;;;;;211.68;116.30;;;;;;;4.61;82.04;98921.16;2779019;84;21647;-68
2020/12/12 12:42:21;;;;;;;154.42;83.60;;;;;;;4.54;82.26;98919.48;2773017;85;21168;-67
2020/12/12 12:46:27;;;;;;;186.73;101.85;;;;;;;4.55;82.24;98916.38;2773080;85;21140;-67
2020/12/12 12:50:38;;;;;;;161.60;88.45;;;;;;;4.52;82.35;98917.91;2772189;85;21610;-67
2020/12/12 12:54:47;;;;;;;153.62;88.00;;;;;;;4.52;82.37;98919.23;2770228;85;21191;-67
2020/12/12 12:58:54;;;;;;;151.87;79.07;;;;;;;4.49;82.48;98912.89;2768099;85;21176;-67
2020/12/12 13:03:02;;;;;;;136.65;82.25;;;;;;;4.50;82.57;98915.88;2772121;85;21156;-67
2020/12/12 13:07:09;;;;;;;157.75;85.32;;;;;;;4.47;82.60;98922.25;2772146;85;21634;-67
2020/12/12 13:11:18;;;;;;;141.92;86.72;;;;;;;4.41;82.82;98915.66;2771810;85;21619;-67
2020/12/12 13:15:28;;;;;;;146.82;84.42;;;;;;;4.42;83.09;98918.65;2769846;84;21180;-66
2020/12/12 13:19:44;;;;;;;162.40;89.75;;;;;;;4.48;82.85;98915.17;2768549;85;21148;-67
2020/12/12 13:23:45;;;;;;;174.47;85.28;;;;;;;4.48;82.98;98919.97;2771791;85;21125;-67
2020/12/12 13:28:01;;;;;;;160.85;94.55;;;;;;;4.51;83.13;98922.36;2772009;85;21172;-67
2020/12/12 13:31:54;;;;;;;139.30;79.70;;;;;;;4.61;82.99;98932.16;2770331;85;21163;-71
2020/12/12 13:35:59;;;;;;;128.60;72.17;;;;;;;4.63;82.88;98932.90;2772432;84;21169;-65
2020/12/12 13:40:04;;;;;;;124.30;67.45;;;;;;;4.64;82.73;98931.45;2764139;84;21610;-64
2020/12/12 13:44:08;;;;;;;123.53;74.15;;;;;;;4.66;82.67;98930.84;2763712;86;21586;-66
2020/12/12 13:48:11;;;;;;;130.00;75.15;;;;;;;4.61;82.65;98937.42;2763716;85;21172;-68
2020/12/12 13:52:14;;;;;;;126.35;70.12;;;;;;;4.61;82.77;98938.27;2763675;86;22223;-68
2020/12/12 13:56:17;;;;;;;119.40;70.78;;;;;;;4.62;82.75;98941.27;2763413;85;21128;-69
2020/12/12 14:00:22;;;;;;;127.32;74.65;;;;;;;4.65;82.88;98949.42;2763539;86;21577;-70
2020/12/12 14:04:25;;;;;;;145.57;79.27;;;;;;;4.64;82.79;98948.56;2765097;83;21931;-66
2020/12/12 14:21:42;;;;;;;183.57;100.45;;;;;;;4.75;82.58;98956.11;2801396;83;21199;-67
2020/12/12 14:25:27;;;;;;;232.77;132.10;;;;;;;4.81;82.64;98959.57;2783932;84;21159;-68
2020/12/12 14:29:32;;;;;;;185.20;102.65;;;;;;;4.78;82.47;98958.00;2775833;83;21164;-66
2020/12/12 14:33:34;;;;;;;231.95;135.50;;;;;;;4.78;82.47;98964.59;2769773;84;21164;-65
2020/12/12 14:37:38;;;;;;;211.28;130.22;;;;;;;4.78;82.44;98965.91;2806593;83;21639;-70
2020/12/12 14:41:43;;;;;;;232.00;132.75;;;;;;;4.78;82.44;98975.13;2825462;84;21149;-71
2020/12/12 14:45:45;;;;;;;207.35;118.35;;;;;;;4.79;82.42;98974.17;2777514;85;21191;-66
2020/12/12 14:49:48;;;;;;;186.85;114.75;;;;;;;4.78;82.39;98979.58;2825522;84;21132;-71
2020/12/12 14:53:52;;;;;;;181.02;96.22;;;;;;;4.73;82.45;98984.38;2777791;84;21713;-70
2020/12/12 14:57:54;;;;;;;175.65;99.55;;;;;;;4.70;82.53;98988.91;2780523;84;21167;-71
2020/12/12 15:01:57;;;;;;;177.90;94.22;;;;;;;4.67;82.56;98999.69;2833364;84;21159;-69
2020/12/12 15:06:02;;;;;;;171.43;101.70;;;;;;;4.64;82.72;98998.61;2833550;84;21140;-71
2020/12/12 15:10:09;;;;;;;188.97;104.90;;;;;;;4.62;82.87;98998.36;2833487;84;21152;-69
2020/12/12 15:14:12;;;;;;;;;;;;;;;4.62;82.94;99006.27;2836040;84;21165;-65
2020/12/12 15:18:16;;;;;;;158.40;93.33;;;;;;;4.60;83.04;99005.08;2833549;84;20228;-66
2020/12/12 15:22:19;;;;;;;172.02;95.85;;;;;;;4.57;83.09;99004.01;2832942;84;21320;-68
2020/12/12 15:26:22;;;;;;;158.32;98.58;;;;;;;4.60;83.17;99006.40;2833426;84;21618;-68
2020/12/12 15:30:28;;;;;;;156.07;93.97;;;;;;;4.60;83.18;99005.08;2833269;84;21156;-68
2020/12/12 15:34:30;;;;;;;156.67;92.22;;;;;;;4.60;83.36;99015.62;2833155;84;21145;-68
2020/12/12 15:38:34;;;;;;;160.97;99.72;;;;;;;4.64;83.50;99017.55;2830711;84;21187;-67
2020/12/12 15:42:37;;;;;;;144.10;92.70;;;;;;;4.67;83.33;99018.13;2827734;84;21164;-67
2020/12/12 15:46:41;;;;;;;132.75;82.97;;;;;;;4.67;83.25;99027.34;2827522;84;21172;-65
2020/12/12 15:50:44;;;;;;;147.93;79.55;;;;;;;4.67;83.32;99025.20;2827270;84;21634;-70
2020/12/12 15:54:47;;;;;;;157.45;88.27;;;;;;;4.66;83.40;99028.30;2827365;84;21571;-71
2020/12/12 15:58:50;;;;;;;145.75;88.95;;;;;;;4.67;83.44;99034.42;2827778;84;21093;-71
2020/12/12 16:02:53;;;;;;;187.20;107.92;;;;;;;4.68;83.40;99034.28;2827329;84;21611;-63
2020/12/12 16:07:02;;;;;;;151.90;87.62;;;;;;;4.71;83.46;99038.00;2827237;84;21642;-64
2020/12/12 16:11:07;;;;;;;143.35;84.72;;;;;;;4.74;83.31;99037.42;2827238;83;21176;-64
2020/12/12 16:15:14;;;;;;;150.03;85.90;;;;;;;4.73;83.29;99034.44;2827630;84;21105;-72
2020/12/12 16:19:17;;;;;;;133.87;82.80;;;;;;;4.73;83.26;99036.57;2827898;84;21105;-70
2020/12/12 16:23:20;;;;;;;146.60;79.35;;;;;;;4.73;83.16;99039.70;2827600;84;21164;-66
2020/12/12 16:27:23;;;;;;;141.55;79.70;;;;;;;4.71;83.16;99039.31;2827651;84;21165;-69
2020/12/12 16:31:26;;;;;;;118.95;72.75;;;;;;;4.66;83.20;99038.84;2827866;84;21190;-70
2020/12/12 16:35:32;;;;;;;131.27;78.05;;;;;;;4.65;83.41;99046.38;2828070;84;21438;-69
2020/12/12 16:39:36;;;;;;;134.00;84.37;;;;;;;4.66;83.40;99053.83;2846607;83;21182;-71
2020/12/12 16:43:40;;;;;;;148.68;86.05;;;;;;;4.64;83.56;99052.61;2858663;82;21155;-67
2020/12/12 16:47:44;;;;;;;134.65;80.05;;;;;;;4.69;83.49;99057.53;2859053;83;21191;-69
2020/12/12 16:51:47;;;;;;;136.37;80.15;;;;;;;4.71;83.29;99053.80;2858765;82;21131;-68
2020/12/12 16:55:51;;;;;;;151.05;82.85;;;;;;;4.71;83.20;99060.88;2858810;82;21659;-67
2020/12/12 16:59:54;;;;;;;160.60;94.05;;;;;;;4.71;83.15;99064.34;2858700;82;21127;-69
2020/12/12 17:03:56;;;;;;;141.05;83.58;;;;;;;4.73;82.95;99063.41;2858418;83;21187;-68
2020/12/12 17:07:59;;;;;;;135.28;77.50;;;;;;;4.68;82.84;99068.53;2858957;83;21202;-67
2020/12/12 17:12:06;;;;;;;130.15;76.05;;;;;;;4.65;83.19;99072.72;2858856;82;21167;-71
2020/12/12 17:16:09;;;;;;;145.38;92.25;;;;;;;4.65;83.30;99074.53;2858410;83;21167;-70
2020/12/12 17:20:14;;;;;;;270.27;159.45;;;;;;;4.64;83.20;99081.58;2858304;83;21183;-73
2020/12/12 17:43:24;;;;;;;144.62;88.78;;;;;;;4.64;83.31;99094.75;2757895;85;21227;-65
2020/12/12 17:47:27;;;;;;;133.60;86.55;;;;;;;4.61;83.51;99096.31;2782141;85;21165;-68
2020/12/12 17:51:32;;;;;;;121.40;83.55;;;;;;;4.60;83.54;99097.73;2737973;85;21193;-67
2020/12/12 17:55:36;;;;;;;115.57;74.67;;;;;;;4.57;83.71;99097.02;2738243;86;21647;-67
2020/12/12 17:59:40;;;;;;;121.60;79.20;;;;;;;4.57;83.61;99097.02;2739198;85;21201;-66
2020/12/12 18:03:43;;;;;;;123.38;72.45;;;;;;;4.54;83.61;99108.28;2752466;84;21604;-66
2020/12/12 18:07:46;;;;;;;131.97;78.55;;;;;;;4.56;83.83;99112.95;2778411;83;21190;-66
2020/12/12 18:11:50;;;;;;;133.80;78.95;;;;;;;4.55;83.41;99115.22;2737081;86;21609;-66
2020/12/12 18:15:53;;;;;;;125.75;78.70;;;;;;;4.47;83.18;99117.58;2743656;85;21496;-67
2020/12/12 18:19:57;;;;;;;117.25;73.60;;;;;;;4.40;83.60;99120.69;2724142;84;21218;-66
2020/12/12 18:24:00;;;;;;;112.03;69.47;;;;;;;4.43;83.74;99123.58;2788235;85;22499;-66
2020/12/12 18:28:03;;;;;;;114.40;76.75;;;;;;;4.39;83.10;99127.37;2775109;83;21189;-65
2020/12/12 18:32:10;;;;;;;140.22;83.40;;;;;;;4.29;83.38;99132.48;2787322;83;22723;-67
2020/12/12 18:36:21;;;;;;;106.12;66.12;;;;;;;4.23;83.50;99133.80;2789189;84;21164;-67
2020/12/12 18:40:29;;;;;;;114.47;72.27;;;;;;;4.16;83.47;99141.77;2788121;83;21559;-69
2020/12/12 18:44:34;;;;;;;120.30;74.90;;;;;;;4.12;83.55;99145.58;2764724;84;21134;-66
2020/12/12 18:48:38;;;;;;;123.53;71.33;;;;;;;4.06;83.66;99152.12;2755272;84;21604;-66
2020/12/12 18:52:41;;;;;;;126.25;78.40;;;;;;;4.04;83.56;99152.72;2721769;87;21203;-64
2020/12/12 18:56:47;;;;;;;112.17;73.00;;;;;;;3.95;83.58;99158.66;2720477;85;21171;-64
2020/12/12 19:00:49;;;;;;;121.82;75.70;;;;;;;3.89;83.77;99164.34;2734382;86;21567;-64
2020/12/12 19:04:53;;;;;;;117.33;73.72;;;;;;;3.83;83.81;99164.31;2734165;87;21141;-65
2020/12/12 19:08:56;;;;;;;109.65;70.17;;;;;;;3.77;84.29;99173.97;2716651;85;21126;-67
2020/12/12 19:13:01;;;;;;;138.90;91.08;;;;;;;3.75;84.29;99167.97;2709377;85;21170;-66
2020/12/12 19:17:06;;;;;;;133.80;84.15;;;;;;;3.82;84.71;99173.15;2666748;88;21202;-65
2020/12/12 19:21:12;;;;;;;137.57;89.20;;;;;;;3.91;84.28;99172.97;2734362;86;21160;-65
2020/12/12 19:25:15;;;;;;;133.07;83.97;;;;;;;3.97;84.07;99175.17;2733753;86;21185;-65
2020/12/12 19:29:19;;;;;;;115.77;75.05;;;;;;;4.02;83.88;99178.77;2733951;86;21129;-65
2020/12/12 19:33:22;;;;;;;140.37;83.17;;;;;;;4.02;83.44;99183.57;2723895;86;21183;-66
2020/12/12 19:37:25;;;;;;;124.72;79.40;;;;;;;4.02;83.55;99188.83;2715041;85;21187;-65